Terminal Aerodrome Forecast
Issued by NWS Goodland, KS

Home | Current Version | Previous Version | Text Only | Print | Product List | Glossary On
Versions: 1 2 3 4 5 6 7 8 9 10 11 12 13 14 15 16 17
000
FTUS43 KGLD 291500 AAA
TAFGLD
TAF AMD
KGLD 291518Z 2915/3012 18012KT P6SM SCT030
     FM292100 16012KT P6SM SCT050 BKN200
     FM300000 15012KT P6SM VCTS BKN050CB
     FM300300 12010KT P6SM -TSRA BKN025 OVC050CB
     FM300900 07005KT 6SM -SHRA BR FEW005 SCT030 OVC100=

USA.gov is the U.S. government's official web portal to all federal, state and local government web resources and services.